sensor_id;sensor_type;location;lat;lon;timestamp;pressure;altitude;pressure_sealevel;temperature;humidity
54262;BME280;40174;52.364;6.452;2023-03-03T00:00:27;102278.25;;;1.04;100.00
54262;BME280;40174;52.364;6.452;2023-03-03T00:02:56;102280.00;;;1.04;100.00
54262;BME280;40174;52.364;6.452;2023-03-03T00:05:23;102276.47;;;1.05;100.00
54262;BME280;40174;52.364;6.452;2023-03-03T00:07:51;102279.09;;;1.05;100.00
54262;BME280;40174;52.364;6.452;2023-03-03T00:10:18;102275.56;;;1.08;100.00
54262;BME280;40174;52.364;6.452;2023-03-03T00:12:47;102282.50;;;1.10;100.00
54262;BME280;40174;52.364;6.452;2023-03-03T00:15:15;102281.59;;;1.10;100.00
54262;BME280;40174;52.364;6.452;2023-03-03T00:17:42;102273.78;;;1.11;100.00
54262;BME280;40174;52.364;6.452;2023-03-03T00:20:29;102273.78;;;1.11;100.00
54262;BME280;40174;52.364;6.452;2023-03-03T00:23:08;102276.31;;;1.14;100.00
54262;BME280;40174;52.364;6.452;2023-03-03T00:25:42;102285.03;;;1.13;100.00
54262;BME280;40174;52.364;6.452;2023-03-03T00:28:20;102278.97;;;1.13;100.00
54262;BME280;40174;52.364;6.452;2023-03-03T00:30:48;102280.75;;;1.11;100.00
54262;BME280;40174;52.364;6.452;2023-03-03T00:33:23;102290.31;;;1.10;100.00
54262;BME280;40174;52.364;6.452;2023-03-03T00:35:53;102285.97;;;1.08;100.00
54262;BME280;40174;52.364;6.452;2023-03-03T00:38:21;102289.50;;;1.07;100.00
54262;BME280;40174;52.364;6.452;2023-03-03T00:40:49;102294.63;;;1.10;100.00
54262;BME280;40174;52.364;6.452;2023-03-03T00:43:18;102296.34;;;1.12;100.00
54262;BME280;40174;52.364;6.452;2023-03-03T00:45:46;102290.31;;;1.10;100.00
54262;BME280;40174;52.364;6.452;2023-03-03T00:48:21;102299.00;;;1.09;100.00
54262;BME280;40174;52.364;6.452;2023-03-03T00:50:52;102285.94;;;1.11;100.00
54262;BME280;40174;52.364;6.452;2023-03-03T00:53:22;102287.66;;;1.12;100.00
54262;BME280;40174;52.364;6.452;2023-03-03T00:55:50;102290.25;;;1.13;100.00
54262;BME280;40174;52.364;6.452;2023-03-03T00:58:19;102286.81;;;1.11;100.00
54262;BME280;40174;52.364;6.452;2023-03-03T01:00:47;102289.38;;;1.13;100.00
54262;BME280;40174;52.364;6.452;2023-03-03T01:03:19;102278.97;;;1.13;100.00
54262;BME280;40174;52.364;6.452;2023-03-03T01:05:46;102288.44;;;1.17;100.00
54262;BME280;40174;52.364;6.452;2023-03-03T01:08:13;102286.72;;;1.16;100.00
54262;BME280;40174;52.364;6.452;2023-03-03T01:10:45;102287.56;;;1.18;100.00
54262;BME280;40174;52.364;6.452;2023-03-03T01:13:16;102287.56;;;1.16;100.00
54262;BME280;40174;52.364;6.452;2023-03-03T01:15:43;102278.03;;;1.17;100.00
54262;BME280;40174;52.364;6.452;2023-03-03T01:18:12;102281.50;;;1.16;100.00
54262;BME280;40174;52.364;6.452;2023-03-03T01:20:40;102278.91;;;1.16;100.00
54262;BME280;40174;52.364;6.452;2023-03-03T01:23:07;102282.38;;;1.16;100.00
54262;BME280;40174;52.364;6.452;2023-03-03T01:25:34;102275.44;;;1.15;100.00
54262;BME280;40174;52.364;6.452;2023-03-03T01:28:02;102276.28;;;1.17;100.00
54262;BME280;40174;52.364;6.452;2023-03-03T01:30:29;102267.56;;;1.18;100.00
54262;BME280;40174;52.364;6.452;2023-03-03T01:32:56;102270.22;;;1.17;100.00
54262;BME280;40174;52.364;6.452;2023-03-03T01:35:23;102276.28;;;1.17;100.00
54262;BME280;40174;52.364;6.452;2023-03-03T01:37:50;102265.88;;;1.17;100.00
54262;BME280;40174;52.364;6.452;2023-03-03T01:40:19;102268.41;;;1.20;100.00
54262;BME280;40174;52.364;6.452;2023-03-03T01:42:46;102270.13;;;1.21;100.00
54262;BME280;40174;52.364;6.452;2023-03-03T01:45:20;102277.03;;;1.22;100.00
54262;BME280;40174;52.364;6.452;2023-03-03T01:47:51;102279.63;;;1.24;100.00
54262;BME280;40174;52.364;6.452;2023-03-03T01:50:26;102278.78;;;1.23;100.00
54262;BME280;40174;52.364;6.452;2023-03-03T01:52:54;102276.19;;;1.23;100.00
54262;BME280;40174;52.364;6.452;2023-03-03T01:55:28;102277.03;;;1.24;100.00
54262;BME280;40174;52.364;6.452;2023-03-03T01:57:59;102267.44;;;1.26;100.00
54262;BME280;40174;52.364;6.452;2023-03-03T02:00:30;102268.31;;;1.25;100.00
54262;BME280;40174;52.364;6.452;2023-03-03T02:02:58;102264.03;;;1.21;100.00
54262;BME280;40174;52.364;6.452;2023-03-03T02:05:25;102262.25;;;1.24;100.00
54262;BME280;40174;52.364;6.452;2023-03-03T02:07:52;102267.47;;;1.24;100.00
54262;BME280;40174;52.364;6.452;2023-03-03T02:10:20;102271.81;;;1.24;100.00
54262;BME280;40174;52.364;6.452;2023-03-03T02:12:49;102261.41;;;1.24;100.00
54262;BME280;40174;52.364;6.452;2023-03-03T02:15:21;102265.75;;;1.23;100.00
54262;BME280;40174;52.364;6.452;2023-03-03T02:17:53;102269.16;;;1.25;100.00
54262;BME280;40174;52.364;6.452;2023-03-03T02:20:32;102263.09;;;1.25;100.00
54262;BME280;40174;52.364;6.452;2023-03-03T02:23:06;102273.56;;;1.23;100.00
54262;BME280;40174;52.364;6.452;2023-03-03T02:25:41;102269.16;;;1.25;100.00
54262;BME280;40174;52.364;6.452;2023-03-03T02:28:10;102265.72;;;1.25;100.00
54262;BME280;40174;52.364;6.452;2023-03-03T02:30:38;102271.78;;;1.25;100.00
54262;BME280;40174;52.364;6.452;2023-03-03T02:33:07;102273.53;;;1.25;100.00
54262;BME280;40174;52.364;6.452;2023-03-03T02:35:36;102269.22;;;1.24;100.00
54262;BME280;40174;52.364;6.452;2023-03-03T02:38:16;102275.28;;;1.24;100.00
54262;BME280;40174;52.364;6.452;2023-03-03T02:40:51;102270.91;;;1.25;100.00
54262;BME280;40174;52.364;6.452;2023-03-03T02:43:25;102277.91;;;1.23;100.00
54262;BME280;40174;52.364;6.452;2023-03-03T02:45:54;102264.03;;;1.22;100.00
54262;BME280;40174;52.364;6.452;2023-03-03T02:48:23;102269.22;;;1.24;100.00
54262;BME280;40174;52.364;6.452;2023-03-03T02:50:50;102273.53;;;1.25;100.00
54262;BME280;40174;52.364;6.452;2023-03-03T02:53:17;102266.63;;;1.24;100.00
54262;BME280;40174;52.364;6.452;2023-03-03T02:55:44;102264.84;;;1.24;100.00
54262;BME280;40174;52.364;6.452;2023-03-03T02:58:11;102265.78;;;1.20;100.00
54262;BME280;40174;52.364;6.452;2023-03-03T03:00:39;102273.56;;;1.23;100.00
54262;BME280;40174;52.364;6.452;2023-03-03T03:03:06;102268.38;;;1.23;100.00
54262;BME280;40174;52.364;6.452;2023-03-03T03:05:33;102260.50;;;1.25;100.00
54262;BME280;40174;52.364;6.452;2023-03-03T03:08:02;102267.47;;;1.24;100.00
54262;BME280;40174;52.364;6.452;2023-03-03T03:10:29;102269.22;;;1.24;100.00
54262;BME280;40174;52.364;6.452;2023-03-03T03:12:57;102264.88;;;1.23;100.00
54262;BME280;40174;52.364;6.452;2023-03-03T03:15:23;102258.84;;;1.21;100.00
54262;BME280;40174;52.364;6.452;2023-03-03T03:17:51;102267.53;;;1.21;100.00
54262;BME280;40174;52.364;6.452;2023-03-03T03:20:18;102261.50;;;1.19;100.00
54262;BME280;40174;52.364;6.452;2023-03-03T03:22:45;102259.75;;;1.18;100.00
54262;BME280;40174;52.364;6.452;2023-03-03T03:25:11;102270.16;;;1.18;100.00
54262;BME280;40174;52.364;6.452;2023-03-03T03:27:39;102263.28;;;1.16;100.00
54262;BME280;40174;52.364;6.452;2023-03-03T04:02:40;102280.63;;;1.17;100.00
54262;BME280;40174;52.364;6.452;2023-03-03T04:05:11;102282.31;;;1.19;100.00
54262;BME280;40174;52.364;6.452;2023-03-03T04:23:52;102287.56;;;1.16;100.00
54262;BME280;40174;52.364;6.452;2023-03-03T06:00:43;102291.91;;;1.17;100.00
54262;BME280;40174;52.364;6.452;2023-03-03T06:03:11;102291.00;;;1.18;100.00
54262;BME280;40174;52.364;6.452;2023-03-03T06:05:37;102291.00;;;1.18;100.00
54262;BME280;40174;52.364;6.452;2023-03-03T06:08:04;102305.72;;;1.21;100.00
54262;BME280;40174;52.364;6.452;2023-03-03T06:10:31;102297.03;;;1.22;100.00
54262;BME280;40174;52.364;6.452;2023-03-03T06:13:02;102302.22;;;1.23;100.00
54262;BME280;40174;52.364;6.452;2023-03-03T06:15:29;102296.97;;;1.25;100.00
54262;BME280;40174;52.364;6.452;2023-03-03T06:17:57;102300.50;;;1.22;100.00
54262;BME280;40174;52.364;6.452;2023-03-03T06:20:23;102292.75;;;1.18;100.00
54262;BME280;40174;52.364;6.452;2023-03-03T06:22:50;102296.13;;;1.24;100.00
54262;BME280;40174;52.364;6.452;2023-03-03T06:25:17;102295.28;;;1.22;100.00
54262;BME280;40174;52.364;6.452;2023-03-03T06:27:43;102297.88;;;1.24;100.00
54262;BME280;40174;52.364;6.452;2023-03-03T06:30:11;102299.56;;;1.27;100.00
54262;BME280;40174;52.364;6.452;2023-03-03T06:32:38;102297.81;;;1.25;100.00
54262;BME280;40174;52.364;6.452;2023-03-03T06:35:07;102303.00;;;1.29;100.00
54262;BME280;40174;52.364;6.452;2023-03-03T06:37:33;102307.34;;;1.28;100.00
54262;BME280;40174;52.364;6.452;2023-03-03T06:40:00;102303.84;;;1.29;100.00
54262;BME280;40174;52.364;6.452;2023-03-03T06:42:26;102302.97;;;1.30;100.00
54262;BME280;40174;52.364;6.452;2023-03-03T06:44:53;102309.88;;;1.33;100.00
54262;BME280;40174;52.364;6.452;2023-03-03T06:47:20;102309.88;;;1.33;100.00
54262;BME280;40174;52.364;6.452;2023-03-03T06:49:46;102310.72;;;1.33;100.00
54262;BME280;40174;52.364;6.452;2023-03-03T06:52:18;102320.25;;;1.34;100.00
54262;BME280;40174;52.364;6.452;2023-03-03T06:54:46;102312.44;;;1.34;100.00
54262;BME280;40174;52.364;6.452;2023-03-03T06:57:18;102319.38;;;1.35;100.00
54262;BME280;40174;52.364;6.452;2023-03-03T06:59:50;102318.47;;;1.38;100.00
54262;BME280;40174;52.364;6.452;2023-03-03T07:02:18;102328.81;;;1.41;100.00
54262;BME280;40174;52.364;6.452;2023-03-03T07:04:45;102320.16;;;1.40;100.00
54262;BME280;40174;52.364;6.452;2023-03-03T07:07:17;102322.72;;;1.42;100.00
54262;BME280;40174;52.364;6.452;2023-03-03T07:09:47;102329.66;;;1.43;100.00
54262;BME280;40174;52.364;6.452;2023-03-03T07:12:15;102332.22;;;1.46;100.00
54262;BME280;40174;52.364;6.452;2023-03-03T07:14:47;102335.69;;;1.47;100.00
54262;BME280;40174;52.364;6.452;2023-03-03T07:17:17;102336.50;;;1.49;100.00
54262;BME280;40174;52.364;6.452;2023-03-03T07:19:45;102337.34;;;1.49;100.00
54262;BME280;40174;52.364;6.452;2023-03-03T07:22:16;102341.66;;;1.50;100.00
54262;BME280;40174;52.364;6.452;2023-03-03T07:24:45;102339.03;;;1.53;100.00
54262;BME280;40174;52.364;6.452;2023-03-03T07:27:18;102347.69;;;1.54;100.00
54262;BME280;40174;52.364;6.452;2023-03-03T07:29:50;102360.66;;;1.57;100.00
54262;BME280;40174;52.364;6.452;2023-03-03T07:32:27;102360.66;;;1.58;100.00
54262;BME280;40174;52.364;6.452;2023-03-03T07:34:58;102362.34;;;1.61;100.00
54262;BME280;40174;52.364;6.452;2023-03-03T07:37:29;102370.16;;;1.61;100.00
54262;BME280;40174;52.364;6.452;2023-03-03T07:39:57;102373.59;;;1.61;100.00
54262;BME280;40174;52.364;6.452;2023-03-03T07:42:27;102376.16;;;1.66;100.00
54262;BME280;40174;52.364;6.452;2023-03-03T07:45:22;102374.44;;;1.65;100.00
54262;BME280;40174;52.364;6.452;2023-03-03T07:47:50;102377.84;;;1.69;100.00
54262;BME280;40174;52.364;6.452;2023-03-03T07:50:19;102383.84;;;1.72;100.00
54262;BME280;40174;52.364;6.452;2023-03-03T07:52:54;102380.38;;;1.73;100.00
54262;BME280;40174;52.364;6.452;2023-03-03T07:55:33;102386.38;;;1.77;100.00
54262;BME280;40174;52.364;6.452;2023-03-03T07:58:16;102388.09;;;1.78;100.00
54262;BME280;40174;52.364;6.452;2023-03-03T08:03:52;102406.25;;;1.82;100.00
54262;BME280;40174;52.364;6.452;2023-03-03T08:06:36;102403.59;;;1.85;100.00
54262;BME280;40174;52.364;6.452;2023-03-03T08:12:22;102406.91;;;1.94;100.00
54262;BME280;40174;52.364;6.452;2023-03-03T08:14:50;102405.16;;;1.94;100.00
54262;BME280;40174;52.364;6.452;2023-03-03T08:17:19;102394.72;;;1.96;100.00
54262;BME280;40174;52.364;6.452;2023-03-03T08:19:47;102399.00;;;2.00;100.00
54262;BME280;40174;52.364;6.452;2023-03-03T08:22:17;102395.41;;;2.04;100.00
54262;BME280;40174;52.364;6.452;2023-03-03T08:24:45;102404.03;;;2.09;100.00
54262;BME280;40174;52.364;6.452;2023-03-03T08:27:11;102410.00;;;2.14;100.00
54262;BME280;40174;52.364;6.452;2023-03-03T08:29:38;102404.78;;;2.14;100.00
54262;BME280;40174;52.364;6.452;2023-03-03T08:32:05;102411.66;;;2.18;100.00
54262;BME280;40174;52.364;6.452;2023-03-03T08:34:32;102415.09;;;2.20;100.00
54262;BME280;40174;52.364;6.452;2023-03-03T08:36:58;102416.78;;;2.23;100.00
54262;BME280;40174;52.364;6.452;2023-03-03T08:39:25;102414.09;;;2.26;100.00
54262;BME280;40174;52.364;6.452;2023-03-03T08:41:53;102414.09;;;2.27;100.00
54262;BME280;40174;52.364;6.452;2023-03-03T08:44:19;102410.53;;;2.32;100.00
54262;BME280;40174;52.364;6.452;2023-03-03T08:46:46;102412.22;;;2.34;100.00
54262;BME280;40174;52.364;6.452;2023-03-03T08:49:12;102408.66;;;2.37;100.00
54262;BME280;40174;52.364;6.452;2023-03-03T08:51:40;102408.66;;;2.38;100.00
54262;BME280;40174;52.364;6.452;2023-03-03T08:54:07;102407.72;;;2.41;100.00
54262;BME280;40174;52.364;6.452;2023-03-03T08:56:33;102415.44;;;2.45;100.00
54262;BME280;40174;52.364;6.452;2023-03-03T08:59:01;102414.53;;;2.48;100.00
54262;BME280;40174;52.364;6.452;2023-03-03T09:01:28;102417.88;;;2.53;100.00
54262;BME280;40174;52.364;6.452;2023-03-03T09:03:55;102414.41;;;2.54;100.00
54262;BME280;40174;52.364;6.452;2023-03-03T09:06:21;102418.66;;;2.58;100.00
54262;BME280;40174;52.364;6.452;2023-03-03T09:08:48;102412.50;;;2.62;100.00
54262;BME280;40174;52.364;6.452;2023-03-03T09:11:19;102413.25;;;2.67;100.00
54262;BME280;40174;52.364;6.452;2023-03-03T09:13:47;102413.13;;;2.72;100.00
54262;BME280;40174;52.364;6.452;2023-03-03T09:16:18;102415.66;;;2.77;100.00
54262;BME280;40174;52.364;6.452;2023-03-03T09:18:46;102418.16;;;2.81;100.00
54262;BME280;40174;52.364;6.452;2023-03-03T09:21:21;102419.84;;;2.84;100.00
54262;BME280;40174;52.364;6.452;2023-03-03T09:23:52;102420.63;;;2.87;100.00
54262;BME280;40174;52.364;6.452;2023-03-03T09:26:25;102421.34;;;2.94;100.00
54262;BME280;40174;52.364;6.452;2023-03-03T09:28:54;102420.38;;;2.98;100.00
54262;BME280;40174;52.364;6.452;2023-03-03T09:31:27;102422.81;;;3.06;100.00
54262;BME280;40174;52.364;6.452;2023-03-03T09:36:35;102414.66;;;3.20;100.00
54262;BME280;40174;52.364;6.452;2023-03-03T09:39:13;102412.63;;;3.31;100.00
54262;BME280;40174;52.364;6.452;2023-03-03T09:44:55;102406.16;;;3.46;100.00
54262;BME280;40174;52.364;6.452;2023-03-03T09:47:43;102412.22;;;3.48;100.00
54262;BME280;40174;52.364;6.452;2023-03-03T09:50:25;102413.94;;;3.49;100.00
54262;BME280;40174;52.364;6.452;2023-03-03T09:53:06;102415.31;;;3.62;100.00
54262;BME280;40174;52.364;6.452;2023-03-03T09:55:42;102420.88;;;3.83;100.00
54262;BME280;40174;52.364;6.452;2023-03-03T09:58:26;102416.75;;;4.07;100.00
54262;BME280;40174;52.364;6.452;2023-03-03T10:01:04;102424.81;;;4.30;100.00
54262;BME280;40174;52.364;6.452;2023-03-03T10:03:59;102420.75;;;4.50;100.00
54262;BME280;40174;52.364;6.452;2023-03-03T10:06:33;102426.56;;;4.59;100.00
54262;BME280;40174;52.364;6.452;2023-03-03T10:09:31;102425.22;;;4.76;100.00
54262;BME280;40174;52.364;6.452;2023-03-03T10:12:09;102424.75;;;4.91;100.00
54262;BME280;40174;52.364;6.452;2023-03-03T10:14:53;102435.66;;;5.06;100.00
54262;BME280;40174;52.364;6.452;2023-03-03T10:17:30;102426.50;;;5.19;100.00
54262;BME280;40174;52.364;6.452;2023-03-03T10:20:11;102423.63;;;5.27;100.00
54262;BME280;40174;52.364;6.452;2023-03-03T10:22:51;102424.22;;;5.35;100.00
54262;BME280;40174;52.364;6.452;2023-03-03T10:25:26;102419.44;;;5.48;100.00
54262;BME280;40174;52.364;6.452;2023-03-03T10:28:05;102424.09;;;5.65;100.00
54262;BME280;40174;52.364;6.452;2023-03-03T10:30:48;102429.00;;;5.75;100.00
54262;BME280;40174;52.364;6.452;2023-03-03T10:33:22;102424.34;;;5.83;100.00
54262;BME280;40174;52.364;6.452;2023-03-03T10:36:07;102424.19;;;5.88;100.00
54262;BME280;40174;52.364;6.452;2023-03-03T10:38:45;102425.53;;;6.00;100.00
54262;BME280;40174;52.364;6.452;2023-03-03T10:41:31;102425.63;;;6.22;100.00
54262;BME280;40174;52.364;6.452;2023-03-03T10:44:14;102423.28;;;6.38;100.00
54262;BME280;40174;52.364;6.452;2023-03-03T10:47:15;102420.97;;;6.52;100.00
54262;BME280;40174;52.364;6.452;2023-03-03T10:49:53;102425.56;;;6.71;100.00
54262;BME280;40174;52.364;6.452;2023-03-03T10:52:32;102420.47;;;6.88;100.00
54262;BME280;40174;52.364;6.452;2023-03-03T10:58:24;102436.31;;;7.31;100.00
54262;BME280;40174;52.364;6.452;2023-03-03T11:00:59;102429.56;;;7.45;100.00
54262;BME280;40174;52.364;6.452;2023-03-03T11:03:38;102425.84;;;7.51;100.00
54262;BME280;40174;52.364;6.452;2023-03-03T11:06:11;102430.50;;;7.65;100.00
54262;BME280;40174;52.364;6.452;2023-03-03T11:08:45;102423.00;;;7.76;100.00
54262;BME280;40174;52.364;6.452;2023-03-03T11:11:16;102425.69;;;7.95;100.00
54262;BME280;40174;52.364;6.452;2023-03-03T11:13:47;102416.97;;;8.13;100.00
54262;BME280;40174;52.364;6.452;2023-03-03T11:16:24;102424.13;;;8.30;100.00
54262;BME280;40174;52.364;6.452;2023-03-03T11:19:01;102416.84;;;8.36;100.00
54262;BME280;40174;52.364;6.452;2023-03-03T11:21:34;102413.47;;;8.52;100.00
54262;BME280;40174;52.364;6.452;2023-03-03T11:24:20;102415.03;;;8.76;100.00
54262;BME280;40174;52.364;6.452;2023-03-03T11:30:17;102409.41;;;9.20;100.00
54262;BME280;40174;52.364;6.452;2023-03-03T11:32:55;102406.06;;;9.33;100.00
54262;BME280;40174;52.364;6.452;2023-03-03T11:35:34;102398.47;;;9.27;100.00
54262;BME280;40174;52.364;6.452;2023-03-03T11:38:13;102404.50;;;9.12;100.00
54262;BME280;40174;52.364;6.452;2023-03-03T11:40:50;102408.03;;;8.93;100.00
54262;BME280;40174;52.364;6.452;2023-03-03T11:43:21;102401.56;;;8.82;100.00
54262;BME280;40174;52.364;6.452;2023-03-03T11:45:52;102392.03;;;8.60;100.00
54262;BME280;40174;52.364;6.452;2023-03-03T11:48:37;102392.63;;;8.48;100.00
54262;BME280;40174;52.364;6.452;2023-03-03T11:51:06;102403.28;;;8.45;100.00
54262;BME280;40174;52.364;6.452;2023-03-03T11:53:44;102395.53;;;8.42;100.00
54262;BME280;40174;52.364;6.452;2023-03-03T11:56:22;102395.34;;;8.26;100.00
54262;BME280;40174;52.364;6.452;2023-03-03T11:58:56;102382.59;;;8.17;100.00
54262;BME280;40174;52.364;6.452;2023-03-03T12:01:29;102389.06;;;8.09;100.00
54262;BME280;40174;52.364;6.452;2023-03-03T12:04:00;102389.78;;;8.13;100.00
54262;BME280;40174;52.364;6.452;2023-03-03T12:06:33;102380.88;;;8.16;100.00
54262;BME280;40174;52.364;6.452;2023-03-03T12:09:15;102389.34;;;8.22;100.00
54262;BME280;40174;52.364;6.452;2023-03-03T12:11:48;102390.28;;;8.21;100.00
54262;BME280;40174;52.364;6.452;2023-03-03T12:14:32;102391.06;;;8.44;100.00
54262;BME280;40174;52.364;6.452;2023-03-03T12:17:03;102378.06;;;8.58;100.00
54262;BME280;40174;52.364;6.452;2023-03-03T12:19:43;102382.88;;;8.50;100.00
54262;BME280;40174;52.364;6.452;2023-03-03T12:22:31;102390.31;;;8.40;100.00
54262;BME280;40174;52.364;6.452;2023-03-03T12:25:08;102380.41;;;8.26;100.00
54262;BME280;40174;52.364;6.452;2023-03-03T12:27:49;102376.06;;;8.25;100.00
54262;BME280;40174;52.364;6.452;2023-03-03T12:30:46;102384.88;;;8.24;100.00
54262;BME280;40174;52.364;6.452;2023-03-03T12:33:27;102378.97;;;8.19;100.00
54262;BME280;40174;52.364;6.452;2023-03-03T12:36:08;102381.03;;;8.12;100.00
54262;BME280;40174;52.364;6.452;2023-03-03T12:38:45;102381.28;;;8.06;100.00
54262;BME280;40174;52.364;6.452;2023-03-03T12:41:21;102376.25;;;8.02;100.00
54262;BME280;40174;52.364;6.452;2023-03-03T12:43:58;102375.88;;;7.90;100.00
54262;BME280;40174;52.364;6.452;2023-03-03T12:46:35;102375.34;;;7.82;100.00
54262;BME280;40174;52.364;6.452;2023-03-03T12:49:05;102374.19;;;7.69;100.00
54262;BME280;40174;52.364;6.452;2023-03-03T12:51:40;102370.03;;;7.63;100.00
54262;BME280;40174;52.364;6.452;2023-03-03T12:54:19;102372.28;;;7.52;100.00
54262;BME280;40174;52.364;6.452;2023-03-03T12:56:51;102363.66;;;7.48;100.00
54262;BME280;40174;52.364;6.452;2023-03-03T12:59:26;102363.00;;;7.43;100.00
54262;BME280;40174;52.364;6.452;2023-03-03T13:02:16;102365.50;;;7.46;100.00
54262;BME280;40174;52.364;6.452;2023-03-03T13:04:49;102365.50;;;7.46;100.00
54262;BME280;40174;52.364;6.452;2023-03-03T13:07:22;102362.81;;;7.48;100.00
54262;BME280;40174;52.364;6.452;2023-03-03T13:10:03;102364.44;;;7.50;100.00
54262;BME280;40174;52.364;6.452;2023-03-03T13:12:37;102359.31;;;7.47;100.00
54262;BME280;40174;52.364;6.452;2023-03-03T13:15:14;102369.69;;;7.50;100.00
54262;BME280;40174;52.364;6.452;2023-03-03T13:17:54;102362.84;;;7.46;100.00
54262;BME280;40174;52.364;6.452;2023-03-03T13:20:29;102360.63;;;7.37;100.00
54262;BME280;40174;52.364;6.452;2023-03-03T13:23:06;102360.81;;;7.33;100.00
54262;BME280;40174;52.364;6.452;2023-03-03T13:25:47;102356.44;;;7.33;100.00
54262;BME280;40174;52.364;6.452;2023-03-03T13:28:22;102355.69;;;7.29;100.00
54262;BME280;40174;52.364;6.452;2023-03-03T13:30:57;102356.69;;;7.27;100.00
54262;BME280;40174;52.364;6.452;2023-03-03T13:33:27;102358.31;;;7.29;100.00
54262;BME280;40174;52.364;6.452;2023-03-03T13:35:57;102344.25;;;7.31;100.00
54262;BME280;40174;52.364;6.452;2023-03-03T13:38:28;102349.44;;;7.32;100.00
54262;BME280;40174;52.364;6.452;2023-03-03T13:41:03;102350.28;;;7.33;100.00
54262;BME280;40174;52.364;6.452;2023-03-03T13:43:37;102352.81;;;7.36;100.00
54262;BME280;40174;52.364;6.452;2023-03-03T13:46:13;102346.03;;;7.30;100.00
54262;BME280;40174;52.364;6.452;2023-03-03T13:49:05;102341.63;;;7.31;100.00
54262;BME280;40174;52.364;6.452;2023-03-03T13:51:41;102339.97;;;7.28;100.00
54262;BME280;40174;52.364;6.452;2023-03-03T13:54:17;102341.75;;;7.27;100.00
54262;BME280;40174;52.364;6.452;2023-03-03T13:57:01;102341.00;;;7.24;100.00
54262;BME280;40174;52.364;6.452;2023-03-03T13:59:38;102336.56;;;7.26;100.00
54262;BME280;40174;52.364;6.452;2023-03-03T14:02:23;102337.47;;;7.25;100.00
54262;BME280;40174;52.364;6.452;2023-03-03T14:05:00;102338.34;;;7.25;100.00
54262;BME280;40174;52.364;6.452;2023-03-03T14:07:33;102332.47;;;7.19;100.00
54262;BME280;40174;52.364;6.452;2023-03-03T14:10:07;102338.59;;;7.19;100.00
54262;BME280;40174;52.364;6.452;2023-03-03T14:12:41;102321.31;;;7.14;100.00
54262;BME280;40174;52.364;6.452;2023-03-03T14:15:17;102316.84;;;7.16;100.00
54262;BME280;40174;52.364;6.452;2023-03-03T14:18:20;102318.78;;;7.11;100.00
54262;BME280;40174;52.364;6.452;2023-03-03T14:20:50;102317.88;;;7.12;100.00
54262;BME280;40174;52.364;6.452;2023-03-03T14:23:19;102309.59;;;7.21;100.00
54262;BME280;40174;52.364;6.452;2023-03-03T14:25:57;102309.34;;;7.27;100.00
54262;BME280;40174;52.364;6.452;2023-03-03T14:28:27;102315.47;;;7.27;100.00
54262;BME280;40174;52.364;6.452;2023-03-03T14:30:55;102306.63;;;7.28;100.00
54262;BME280;40174;52.364;6.452;2023-03-03T14:33:28;102300.41;;;7.31;100.00
54262;BME280;40174;52.364;6.452;2023-03-03T14:36:05;102304.72;;;7.32;100.00
54262;BME280;40174;52.364;6.452;2023-03-03T14:38:38;102310.72;;;7.36;100.00
54262;BME280;40174;52.364;6.452;2023-03-03T14:41:13;102309.19;;;7.30;100.00
54262;BME280;40174;52.364;6.452;2023-03-03T14:43:41;102302.31;;;7.27;100.00
54262;BME280;40174;52.364;6.452;2023-03-03T14:46:32;102304.09;;;7.27;100.00
54262;BME280;40174;52.364;6.452;2023-03-03T14:49:01;102302.34;;;7.26;100.00
54262;BME280;40174;52.364;6.452;2023-03-03T14:51:32;102290.09;;;7.26;100.00
54262;BME280;40174;52.364;6.452;2023-03-03T14:53:59;102298.09;;;7.23;100.00
54262;BME280;40174;52.364;6.452;2023-03-03T14:56:27;102285.88;;;7.22;100.00
54262;BME280;40174;52.364;6.452;2023-03-03T14:59:15;102294.06;;;7.15;100.00
54262;BME280;40174;52.364;6.452;2023-03-03T15:01:43;102287.13;;;7.14;100.00
54262;BME280;40174;52.364;6.452;2023-03-03T15:04:23;102283.84;;;7.08;100.00
54262;BME280;40174;52.364;6.452;2023-03-03T15:06:52;102280.41;;;7.06;100.00
54262;BME280;40174;52.364;6.452;2023-03-03T15:09:23;102281.28;;;7.07;100.00
54262;BME280;40174;52.364;6.452;2023-03-03T15:11:51;102277.59;;;7.11;100.00
54262;BME280;40174;52.364;6.452;2023-03-03T15:14:20;102270.41;;;7.15;100.00
54262;BME280;40174;52.364;6.452;2023-03-03T15:16:48;102286.06;;;7.18;100.00
54262;BME280;40174;52.364;6.452;2023-03-03T15:19:42;102264.31;;;7.14;100.00
54262;BME280;40174;52.364;6.452;2023-03-03T15:22:19;102274.03;;;7.12;100.00
54262;BME280;40174;52.364;6.452;2023-03-03T15:24:55;102272.25;;;7.13;100.00
54262;BME280;40174;52.364;6.452;2023-03-03T15:27:27;102268.91;;;7.09;100.00
54262;BME280;40174;52.364;6.452;2023-03-03T15:30:03;102269.63;;;7.13;100.00
54262;BME280;40174;52.364;6.452;2023-03-03T15:32:37;102262.06;;;7.05;100.00
54262;BME280;40174;52.364;6.452;2023-03-03T15:35:13;102264.91;;;7.00;100.00
54262;BME280;40174;52.364;6.452;2023-03-03T15:37:50;102262.00;;;7.06;100.00
54262;BME280;40174;52.364;6.452;2023-03-03T15:40:24;102252.19;;;7.10;100.00
54262;BME280;40174;52.364;6.452;2023-03-03T15:42:57;102243.66;;;7.05;100.00
54262;BME280;40174;52.364;6.452;2023-03-03T15:45:30;102256.97;;;7.02;100.00
54262;BME280;40174;52.364;6.452;2023-03-03T15:51:08;102239.19;;;7.07;100.00
54262;BME280;40174;52.364;6.452;2023-03-03T15:56:38;102247.34;;;7.01;100.00
54262;BME280;40174;52.364;6.452;2023-03-03T15:59:27;102250.13;;;6.98;100.00
54262;BME280;40174;52.364;6.452;2023-03-03T16:02:06;102248.53;;;6.94;100.00
54262;BME280;40174;52.364;6.452;2023-03-03T16:04:38;102257.41;;;6.91;100.00
54262;BME280;40174;52.364;6.452;2023-03-03T16:07:21;102252.34;;;6.86;100.00